Arman', Russia
Current Conditions -  °F | °C
As of 12:00 AM on Saturday 01 Nov 2014 (Local Time) from UHMM Reporting Station
Light Snow Light Snow  
Wind Chill:   Ceiling: 10000
Heat Index: 14°   Visibility: 6mi
Dew Point:   Wind: 9mph
Humidity: 79%   Direction: 350°N
Pressure: 29.53"   Gusts: NA
Location:  59.7°N, 150.17°E
Report Text: UHMM 311300Z 35004MPS 9999 -SN SCT036 OVC100 M10/M13 Q1000 RMKQFE735
Loading
Personal Weather Stations






























Interactive Weather Map
Tropical Storm Tracking
New forecast layout! Learn more

10-Day Weather Forecast

Advertisements
Track Severe Weather on mobile